sensor_id;sensor_type;location;lat;lon;timestamp;P1;durP1;ratioP1;P2;durP2;ratioP2
41480;SDS011;27217;51.220;5.308;2023-02-18T00:01:17;18.83;;;11.00;;
41480;SDS011;27217;51.220;5.308;2023-02-18T00:03:44;19.08;;;11.52;;
41480;SDS011;27217;51.220;5.308;2023-02-18T00:06:21;20.20;;;12.13;;
41480;SDS011;27217;51.220;5.308;2023-02-18T00:08:49;20.25;;;11.38;;
41480;SDS011;27217;51.220;5.308;2023-02-18T00:11:16;20.25;;;12.40;;
41480;SDS011;27217;51.220;5.308;2023-02-18T00:13:48;22.30;;;13.48;;
41480;SDS011;27217;51.220;5.308;2023-02-18T00:16:17;23.85;;;14.00;;
41480;SDS011;27217;51.220;5.308;2023-02-18T00:18:44;24.25;;;13.80;;
41480;SDS011;27217;51.220;5.308;2023-02-18T00:21:10;28.17;;;15.68;;
41480;SDS011;27217;51.220;5.308;2023-02-18T00:23:35;32.35;;;17.42;;
41480;SDS011;27217;51.220;5.308;2023-02-18T00:26:04;28.08;;;15.63;;
41480;SDS011;27217;51.220;5.308;2023-02-18T00:28:32;33.13;;;17.50;;
41480;SDS011;27217;51.220;5.308;2023-02-18T00:30:59;29.25;;;16.88;;
41480;SDS011;27217;51.220;5.308;2023-02-18T00:33:33;36.45;;;18.98;;
41480;SDS011;27217;51.220;5.308;2023-02-18T00:36:05;33.72;;;17.25;;
41480;SDS011;27217;51.220;5.308;2023-02-18T00:38:33;41.97;;;19.33;;
41480;SDS011;27217;51.220;5.308;2023-02-18T00:40:59;40.22;;;19.15;;
41480;SDS011;27217;51.220;5.308;2023-02-18T00:43:25;37.13;;;18.55;;
41480;SDS011;27217;51.220;5.308;2023-02-18T00:45:52;42.78;;;21.58;;
41480;SDS011;27217;51.220;5.308;2023-02-18T00:48:18;41.80;;;18.27;;
41480;SDS011;27217;51.220;5.308;2023-02-18T00:50:45;45.45;;;20.38;;
41480;SDS011;27217;51.220;5.308;2023-02-18T00:53:11;37.67;;;17.77;;
41480;SDS011;27217;51.220;5.308;2023-02-18T00:55:38;43.05;;;20.55;;
41480;SDS011;27217;51.220;5.308;2023-02-18T00:58:04;39.58;;;17.98;;
41480;SDS011;27217;51.220;5.308;2023-02-18T01:00:31;45.40;;;19.05;;
41480;SDS011;27217;51.220;5.308;2023-02-18T01:02:56;43.85;;;20.33;;
41480;SDS011;27217;51.220;5.308;2023-02-18T01:05:22;50.83;;;22.73;;
41480;SDS011;27217;51.220;5.308;2023-02-18T01:07:51;52.22;;;21.20;;
41480;SDS011;27217;51.220;5.308;2023-02-18T01:10:17;61.90;;;23.45;;
41480;SDS011;27217;51.220;5.308;2023-02-18T01:12:42;59.55;;;22.95;;
41480;SDS011;27217;51.220;5.308;2023-02-18T01:15:14;66.82;;;24.23;;
41480;SDS011;27217;51.220;5.308;2023-02-18T01:17:40;60.80;;;22.55;;
41480;SDS011;27217;51.220;5.308;2023-02-18T01:20:06;66.20;;;26.25;;
41480;SDS011;27217;51.220;5.308;2023-02-18T01:22:33;65.03;;;23.40;;
41480;SDS011;27217;51.220;5.308;2023-02-18T01:25:00;66.40;;;26.17;;
41480;SDS011;27217;51.220;5.308;2023-02-18T01:27:25;71.10;;;25.60;;
41480;SDS011;27217;51.220;5.308;2023-02-18T01:29:51;65.63;;;25.65;;
41480;SDS011;27217;51.220;5.308;2023-02-18T01:32:17;70.18;;;23.63;;
41480;SDS011;27217;51.220;5.308;2023-02-18T01:34:43;74.85;;;24.65;;
41480;SDS011;27217;51.220;5.308;2023-02-18T01:37:09;64.10;;;23.13;;
41480;SDS011;27217;51.220;5.308;2023-02-18T01:39:35;63.33;;;22.67;;
41480;SDS011;27217;51.220;5.308;2023-02-18T01:42:01;67.88;;;23.95;;
41480;SDS011;27217;51.220;5.308;2023-02-18T01:44:27;64.07;;;23.58;;
41480;SDS011;27217;51.220;5.308;2023-02-18T01:46:54;62.42;;;21.15;;
41480;SDS011;27217;51.220;5.308;2023-02-18T01:49:31;58.00;;;20.80;;
41480;SDS011;27217;51.220;5.308;2023-02-18T01:52:10;61.85;;;20.83;;
41480;SDS011;27217;51.220;5.308;2023-02-18T01:54:49;63.15;;;21.45;;
41480;SDS011;27217;51.220;5.308;2023-02-18T01:57:20;56.17;;;18.98;;
41480;SDS011;27217;51.220;5.308;2023-02-18T01:59:51;56.88;;;20.08;;
41480;SDS011;27217;51.220;5.308;2023-02-18T02:02:23;54.88;;;20.20;;
41480;SDS011;27217;51.220;5.308;2023-02-18T02:04:51;73.93;;;21.77;;
41480;SDS011;27217;51.220;5.308;2023-02-18T02:07:18;49.53;;;17.90;;
41480;SDS011;27217;51.220;5.308;2023-02-18T02:09:46;49.25;;;19.17;;
41480;SDS011;27217;51.220;5.308;2023-02-18T02:28:40;44.15;;;14.30;;
41480;SDS011;27217;51.220;5.308;2023-02-18T02:45:09;26.85;;;9.93;;
41480;SDS011;27217;51.220;5.308;2023-02-18T02:47:57;25.83;;;9.45;;
41480;SDS011;27217;51.220;5.308;2023-02-18T02:53:44;26.75;;;9.75;;
41480;SDS011;27217;51.220;5.308;2023-02-18T02:56:22;27.88;;;9.52;;
41480;SDS011;27217;51.220;5.308;2023-02-18T02:58:55;21.95;;;8.43;;
41480;SDS011;27217;51.220;5.308;2023-02-18T03:09:30;18.10;;;6.57;;
41480;SDS011;27217;51.220;5.308;2023-02-18T03:12:14;21.65;;;5.85;;
41480;SDS011;27217;51.220;5.308;2023-02-18T03:15:00;15.50;;;5.63;;
41480;SDS011;27217;51.220;5.308;2023-02-18T03:17:29;14.38;;;5.50;;
41480;SDS011;27217;51.220;5.308;2023-02-18T03:22:38;11.00;;;4.30;;
41480;SDS011;27217;51.220;5.308;2023-02-18T03:25:09;14.85;;;4.68;;
41480;SDS011;27217;51.220;5.308;2023-02-18T03:27:49;12.05;;;4.28;;
41480;SDS011;27217;51.220;5.308;2023-02-18T03:30:52;8.95;;;3.80;;
41480;SDS011;27217;51.220;5.308;2023-02-18T03:33:28;10.95;;;4.13;;
41480;SDS011;27217;51.220;5.308;2023-02-18T03:35:57;10.40;;;4.05;;
41480;SDS011;27217;51.220;5.308;2023-02-18T03:38:34;8.23;;;2.95;;
41480;SDS011;27217;51.220;5.308;2023-02-18T03:41:15;5.53;;;1.85;;
41480;SDS011;27217;51.220;5.308;2023-02-18T03:43:51;0.05;;;0.05;;
41480;SDS011;27217;51.220;5.308;2023-02-18T03:46:19;0.28;;;0.28;;
41480;SDS011;27217;51.220;5.308;2023-02-18T03:48:45;0.00;;;0.00;;
41480;SDS011;27217;51.220;5.308;2023-02-18T03:51:10;0.00;;;0.00;;
41480;SDS011;27217;51.220;5.308;2023-02-18T03:53:36;0.00;;;0.00;;
41480;SDS011;27217;51.220;5.308;2023-02-18T03:56:02;0.00;;;0.00;;
41480;SDS011;27217;51.220;5.308;2023-02-18T03:58:29;0.00;;;0.00;;
41480;SDS011;27217;51.220;5.308;2023-02-18T04:00:56;0.00;;;0.00;;
41480;SDS011;27217;51.220;5.308;2023-02-18T04:03:22;0.00;;;0.00;;
41480;SDS011;27217;51.220;5.308;2023-02-18T04:05:48;0.00;;;0.00;;
41480;SDS011;27217;51.220;5.308;2023-02-18T04:08:14;0.00;;;0.00;;
41480;SDS011;27217;51.220;5.308;2023-02-18T04:10:40;0.20;;;0.20;;
41480;SDS011;27217;51.220;5.308;2023-02-18T04:13:06;0.00;;;0.00;;
41480;SDS011;27217;51.220;5.308;2023-02-18T04:15:33;0.10;;;0.10;;
41480;SDS011;27217;51.220;5.308;2023-02-18T04:17:59;0.00;;;0.00;;
41480;SDS011;27217;51.220;5.308;2023-02-18T04:20:25;0.00;;;0.00;;
41480;SDS011;27217;51.220;5.308;2023-02-18T04:22:52;0.00;;;0.00;;
41480;SDS011;27217;51.220;5.308;2023-02-18T04:25:18;0.00;;;0.00;;
41480;SDS011;27217;51.220;5.308;2023-02-18T04:27:43;0.10;;;0.10;;
41480;SDS011;27217;51.220;5.308;2023-02-18T04:30:10;0.52;;;0.52;;
41480;SDS011;27217;51.220;5.308;2023-02-18T04:32:37;0.00;;;0.00;;
41480;SDS011;27217;51.220;5.308;2023-02-18T04:35:03;0.00;;;0.00;;
41480;SDS011;27217;51.220;5.308;2023-02-18T04:37:30;0.00;;;0.00;;
41480;SDS011;27217;51.220;5.308;2023-02-18T04:39:56;0.55;;;0.55;;
41480;SDS011;27217;51.220;5.308;2023-02-18T04:42:21;0.00;;;0.00;;
41480;SDS011;27217;51.220;5.308;2023-02-18T04:44:47;0.00;;;0.00;;
41480;SDS011;27217;51.220;5.308;2023-02-18T04:47:13;0.00;;;0.00;;
41480;SDS011;27217;51.220;5.308;2023-02-18T04:49:39;0.10;;;0.10;;
41480;SDS011;27217;51.220;5.308;2023-02-18T04:52:05;0.00;;;0.00;;
41480;SDS011;27217;51.220;5.308;2023-02-18T04:54:31;0.00;;;0.00;;
41480;SDS011;27217;51.220;5.308;2023-02-18T04:56:56;0.00;;;0.00;;
41480;SDS011;27217;51.220;5.308;2023-02-18T04:59:22;0.00;;;0.00;;
41480;SDS011;27217;51.220;5.308;2023-02-18T05:01:48;0.00;;;0.00;;
41480;SDS011;27217;51.220;5.308;2023-02-18T05:04:14;0.00;;;0.00;;
41480;SDS011;27217;51.220;5.308;2023-02-18T05:06:41;0.00;;;0.00;;
41480;SDS011;27217;51.220;5.308;2023-02-18T05:09:08;0.00;;;0.00;;
41480;SDS011;27217;51.220;5.308;2023-02-18T05:11:34;0.00;;;0.00;;
41480;SDS011;27217;51.220;5.308;2023-02-18T05:14:00;0.00;;;0.00;;
41480;SDS011;27217;51.220;5.308;2023-02-18T05:16:25;0.00;;;0.00;;
41480;SDS011;27217;51.220;5.308;2023-02-18T05:18:51;0.00;;;0.00;;
41480;SDS011;27217;51.220;5.308;2023-02-18T05:21:17;0.00;;;0.00;;
41480;SDS011;27217;51.220;5.308;2023-02-18T05:23:43;0.35;;;0.35;;
41480;SDS011;27217;51.220;5.308;2023-02-18T05:26:09;0.52;;;0.52;;
41480;SDS011;27217;51.220;5.308;2023-02-18T05:28:35;0.20;;;0.20;;
41480;SDS011;27217;51.220;5.308;2023-02-18T05:31:00;1.02;;;0.70;;
41480;SDS011;27217;51.220;5.308;2023-02-18T05:33:26;0.00;;;0.00;;
41480;SDS011;27217;51.220;5.308;2023-02-18T05:35:52;0.00;;;0.00;;
41480;SDS011;27217;51.220;5.308;2023-02-18T05:38:18;0.00;;;0.00;;
41480;SDS011;27217;51.220;5.308;2023-02-18T05:40:44;0.00;;;0.00;;
41480;SDS011;27217;51.220;5.308;2023-02-18T05:43:10;0.00;;;0.00;;
41480;SDS011;27217;51.220;5.308;2023-02-18T05:45:36;0.00;;;0.00;;
41480;SDS011;27217;51.220;5.308;2023-02-18T05:48:01;0.28;;;0.28;;
41480;SDS011;27217;51.220;5.308;2023-02-18T05:50:27;0.70;;;0.30;;
41480;SDS011;27217;51.220;5.308;2023-02-18T05:52:54;0.00;;;0.00;;
41480;SDS011;27217;51.220;5.308;2023-02-18T05:55:19;0.22;;;0.22;;
41480;SDS011;27217;51.220;5.308;2023-02-18T05:57:46;0.00;;;0.00;;
41480;SDS011;27217;51.220;5.308;2023-02-18T06:00:12;0.00;;;0.00;;
41480;SDS011;27217;51.220;5.308;2023-02-18T06:02:38;0.00;;;0.00;;
41480;SDS011;27217;51.220;5.308;2023-02-18T06:05:05;0.08;;;0.08;;
41480;SDS011;27217;51.220;5.308;2023-02-18T06:07:31;0.00;;;0.00;;
41480;SDS011;27217;51.220;5.308;2023-02-18T06:09:57;0.00;;;0.00;;
41480;SDS011;27217;51.220;5.308;2023-02-18T06:12:23;0.00;;;0.00;;
41480;SDS011;27217;51.220;5.308;2023-02-18T06:14:49;0.00;;;0.00;;
41480;SDS011;27217;51.220;5.308;2023-02-18T06:17:15;0.00;;;0.00;;
41480;SDS011;27217;51.220;5.308;2023-02-18T06:19:43;0.00;;;0.00;;
41480;SDS011;27217;51.220;5.308;2023-02-18T06:22:09;0.85;;;0.52;;
41480;SDS011;27217;51.220;5.308;2023-02-18T06:24:35;0.00;;;0.00;;
41480;SDS011;27217;51.220;5.308;2023-02-18T06:27:01;0.00;;;0.00;;
41480;SDS011;27217;51.220;5.308;2023-02-18T06:29:28;0.00;;;0.00;;
41480;SDS011;27217;51.220;5.308;2023-02-18T06:31:55;0.00;;;0.00;;
41480;SDS011;27217;51.220;5.308;2023-02-18T06:34:21;0.00;;;0.00;;
41480;SDS011;27217;51.220;5.308;2023-02-18T06:36:50;0.00;;;0.00;;
41480;SDS011;27217;51.220;5.308;2023-02-18T06:39:16;2.58;;;1.02;;
41480;SDS011;27217;51.220;5.308;2023-02-18T06:41:42;1.27;;;0.95;;
41480;SDS011;27217;51.220;5.308;2023-02-18T06:44:08;0.00;;;0.00;;
41480;SDS011;27217;51.220;5.308;2023-02-18T06:46:35;0.00;;;0.00;;
41480;SDS011;27217;51.220;5.308;2023-02-18T06:49:01;0.00;;;0.00;;
41480;SDS011;27217;51.220;5.308;2023-02-18T06:51:27;0.00;;;0.00;;
41480;SDS011;27217;51.220;5.308;2023-02-18T06:53:53;0.00;;;0.00;;
41480;SDS011;27217;51.220;5.308;2023-02-18T06:56:18;0.00;;;0.00;;
41480;SDS011;27217;51.220;5.308;2023-02-18T06:58:44;0.00;;;0.00;;
41480;SDS011;27217;51.220;5.308;2023-02-18T07:01:10;0.00;;;0.00;;
41480;SDS011;27217;51.220;5.308;2023-02-18T07:03:36;0.00;;;0.00;;
41480;SDS011;27217;51.220;5.308;2023-02-18T07:06:02;0.00;;;0.00;;
41480;SDS011;27217;51.220;5.308;2023-02-18T07:08:28;0.00;;;0.00;;
41480;SDS011;27217;51.220;5.308;2023-02-18T07:10:54;0.00;;;0.00;;
41480;SDS011;27217;51.220;5.308;2023-02-18T07:13:21;0.00;;;0.00;;
41480;SDS011;27217;51.220;5.308;2023-02-18T07:15:47;0.00;;;0.00;;
41480;SDS011;27217;51.220;5.308;2023-02-18T07:18:13;0.00;;;0.00;;
41480;SDS011;27217;51.220;5.308;2023-02-18T07:20:39;0.00;;;0.00;;
41480;SDS011;27217;51.220;5.308;2023-02-18T07:23:04;0.00;;;0.00;;
41480;SDS011;27217;51.220;5.308;2023-02-18T07:25:31;0.00;;;0.00;;
41480;SDS011;27217;51.220;5.308;2023-02-18T07:27:57;0.00;;;0.00;;
41480;SDS011;27217;51.220;5.308;2023-02-18T07:30:23;0.00;;;0.00;;
41480;SDS011;27217;51.220;5.308;2023-02-18T07:32:49;0.20;;;0.20;;
41480;SDS011;27217;51.220;5.308;2023-02-18T07:35:15;0.30;;;0.30;;
41480;SDS011;27217;51.220;5.308;2023-02-18T07:37:45;0.00;;;0.00;;
41480;SDS011;27217;51.220;5.308;2023-02-18T07:40:12;0.00;;;0.00;;
41480;SDS011;27217;51.220;5.308;2023-02-18T07:42:41;0.00;;;0.00;;
41480;SDS011;27217;51.220;5.308;2023-02-18T07:45:07;0.00;;;0.00;;
41480;SDS011;27217;51.220;5.308;2023-02-18T07:47:33;0.13;;;0.13;;
41480;SDS011;27217;51.220;5.308;2023-02-18T07:49:59;0.00;;;0.00;;
41480;SDS011;27217;51.220;5.308;2023-02-18T07:52:25;0.15;;;0.15;;
41480;SDS011;27217;51.220;5.308;2023-02-18T07:54:51;0.22;;;0.20;;
41480;SDS011;27217;51.220;5.308;2023-02-18T07:57:17;0.00;;;0.00;;
41480;SDS011;27217;51.220;5.308;2023-02-18T07:59:43;0.15;;;0.15;;
41480;SDS011;27217;51.220;5.308;2023-02-18T08:02:14;0.00;;;0.00;;
41480;SDS011;27217;51.220;5.308;2023-02-18T08:04:43;0.00;;;0.00;;
41480;SDS011;27217;51.220;5.308;2023-02-18T08:07:12;0.28;;;0.28;;
41480;SDS011;27217;51.220;5.308;2023-02-18T08:09:39;0.47;;;0.47;;
41480;SDS011;27217;51.220;5.308;2023-02-18T08:12:05;0.00;;;0.00;;
41480;SDS011;27217;51.220;5.308;2023-02-18T08:14:32;0.38;;;0.38;;
41480;SDS011;27217;51.220;5.308;2023-02-18T08:16:58;0.00;;;0.00;;
41480;SDS011;27217;51.220;5.308;2023-02-18T08:19:27;0.10;;;0.10;;
41480;SDS011;27217;51.220;5.308;2023-02-18T08:21:52;0.00;;;0.00;;
41480;SDS011;27217;51.220;5.308;2023-02-18T08:24:19;0.00;;;0.00;;
41480;SDS011;27217;51.220;5.308;2023-02-18T08:26:44;0.10;;;0.10;;
41480;SDS011;27217;51.220;5.308;2023-02-18T08:29:10;0.00;;;0.00;;
41480;SDS011;27217;51.220;5.308;2023-02-18T08:31:36;0.00;;;0.00;;
41480;SDS011;27217;51.220;5.308;2023-02-18T08:34:01;0.00;;;0.00;;
41480;SDS011;27217;51.220;5.308;2023-02-18T08:36:28;0.00;;;0.00;;
41480;SDS011;27217;51.220;5.308;2023-02-18T08:38:54;0.00;;;0.00;;
41480;SDS011;27217;51.220;5.308;2023-02-18T08:41:20;0.05;;;0.05;;
41480;SDS011;27217;51.220;5.308;2023-02-18T08:43:47;0.00;;;0.00;;
41480;SDS011;27217;51.220;5.308;2023-02-18T08:46:13;0.00;;;0.00;;
41480;SDS011;27217;51.220;5.308;2023-02-18T08:48:40;0.00;;;0.00;;
41480;SDS011;27217;51.220;5.308;2023-02-18T08:51:14;0.15;;;0.15;;
41480;SDS011;27217;51.220;5.308;2023-02-18T08:53:42;0.00;;;0.00;;
41480;SDS011;27217;51.220;5.308;2023-02-18T08:56:09;6.55;;;0.90;;
41480;SDS011;27217;51.220;5.308;2023-02-18T08:58:35;0.00;;;0.00;;
41480;SDS011;27217;51.220;5.308;2023-02-18T09:01:05;0.00;;;0.00;;
41480;SDS011;27217;51.220;5.308;2023-02-18T09:03:38;0.10;;;0.10;;
41480;SDS011;27217;51.220;5.308;2023-02-18T09:06:05;0.00;;;0.00;;
41480;SDS011;27217;51.220;5.308;2023-02-18T09:08:31;2.90;;;0.60;;
41480;SDS011;27217;51.220;5.308;2023-02-18T09:10:58;0.00;;;0.00;;
41480;SDS011;27217;51.220;5.308;2023-02-18T09:13:25;5.03;;;2.05;;
41480;SDS011;27217;51.220;5.308;2023-02-18T09:15:55;0.55;;;0.55;;
41480;SDS011;27217;51.220;5.308;2023-02-18T09:18:25;4.22;;;1.17;;
41480;SDS011;27217;51.220;5.308;2023-02-18T09:20:54;0.00;;;0.00;;
41480;SDS011;27217;51.220;5.308;2023-02-18T09:23:21;0.00;;;0.00;;
41480;SDS011;27217;51.220;5.308;2023-02-18T09:25:47;0.00;;;0.00;;
41480;SDS011;27217;51.220;5.308;2023-02-18T09:28:13;0.00;;;0.00;;
41480;SDS011;27217;51.220;5.308;2023-02-18T09:30:39;0.00;;;0.00;;
41480;SDS011;27217;51.220;5.308;2023-02-18T09:33:05;0.00;;;0.00;;
41480;SDS011;27217;51.220;5.308;2023-02-18T09:35:31;0.00;;;0.00;;
41480;SDS011;27217;51.220;5.308;2023-02-18T09:37:58;0.00;;;0.00;;
41480;SDS011;27217;51.220;5.308;2023-02-18T09:40:25;0.20;;;0.20;;
41480;SDS011;27217;51.220;5.308;2023-02-18T09:42:55;4.28;;;0.85;;
41480;SDS011;27217;51.220;5.308;2023-02-18T09:45:22;14.52;;;2.50;;
41480;SDS011;27217;51.220;5.308;2023-02-18T09:47:49;18.60;;;3.38;;
41480;SDS011;27217;51.220;5.308;2023-02-18T09:50:23;12.00;;;2.85;;
41480;SDS011;27217;51.220;5.308;2023-02-18T09:53:02;8.88;;;2.65;;
41480;SDS011;27217;51.220;5.308;2023-02-18T09:55:37;0.00;;;0.00;;
41480;SDS011;27217;51.220;5.308;2023-02-18T10:00:48;0.00;;;0.00;;
41480;SDS011;27217;51.220;5.308;2023-02-18T10:03:19;0.10;;;0.10;;
41480;SDS011;27217;51.220;5.308;2023-02-18T10:05:57;0.00;;;0.00;;
41480;SDS011;27217;51.220;5.308;2023-02-18T10:08:35;0.08;;;0.08;;
41480;SDS011;27217;51.220;5.308;2023-02-18T10:11:13;5.82;;;1.50;;
41480;SDS011;27217;51.220;5.308;2023-02-18T10:13:42;0.00;;;0.00;;
41480;SDS011;27217;51.220;5.308;2023-02-18T10:16:11;0.00;;;0.00;;
41480;SDS011;27217;51.220;5.308;2023-02-18T10:18:43;0.00;;;0.00;;
41480;SDS011;27217;51.220;5.308;2023-02-18T10:21:46;0.00;;;0.00;;
41480;SDS011;27217;51.220;5.308;2023-02-18T10:24:06;0.05;;;0.05;;
41480;SDS011;27217;51.220;5.308;2023-02-18T10:26:52;0.10;;;0.10;;
41480;SDS011;27217;51.220;5.308;2023-02-18T10:29:19;0.00;;;0.00;;
41480;SDS011;27217;51.220;5.308;2023-02-18T10:37:06;0.28;;;0.28;;
41480;SDS011;27217;51.220;5.308;2023-02-18T10:39:45;0.35;;;0.30;;
41480;SDS011;27217;51.220;5.308;2023-02-18T10:50:38;1.40;;;1.30;;
41480;SDS011;27217;51.220;5.308;2023-02-18T10:53:09;2.20;;;0.77;;
41480;SDS011;27217;51.220;5.308;2023-02-18T10:55:54;0.40;;;0.40;;
41480;SDS011;27217;51.220;5.308;2023-02-18T10:58:24;1.65;;;1.50;;
41480;SDS011;27217;51.220;5.308;2023-02-18T11:00:50;0.00;;;0.00;;
41480;SDS011;27217;51.220;5.308;2023-02-18T11:03:18;0.00;;;0.00;;
41480;SDS011;27217;51.220;5.308;2023-02-18T11:05:47;0.10;;;0.10;;
41480;SDS011;27217;51.220;5.308;2023-02-18T11:08:23;0.00;;;0.00;;
41480;SDS011;27217;51.220;5.308;2023-02-18T11:11:08;0.10;;;0.10;;
41480;SDS011;27217;51.220;5.308;2023-02-18T11:13:51;0.00;;;0.00;;
41480;SDS011;27217;51.220;5.308;2023-02-18T11:16:21;0.00;;;0.00;;
41480;SDS011;27217;51.220;5.308;2023-02-18T11:18:48;0.00;;;0.00;;
41480;SDS011;27217;51.220;5.308;2023-02-18T11:24:08;0.00;;;0.00;;
41480;SDS011;27217;51.220;5.308;2023-02-18T11:26:39;0.00;;;0.00;;
41480;SDS011;27217;51.220;5.308;2023-02-18T11:29:18;1.65;;;0.63;;
41480;SDS011;27217;51.220;5.308;2023-02-18T11:31:47;0.05;;;0.05;;
41480;SDS011;27217;51.220;5.308;2023-02-18T11:34:21;0.00;;;0.00;;
41480;SDS011;27217;51.220;5.308;2023-02-18T11:36:50;0.00;;;0.00;;
41480;SDS011;27217;51.220;5.308;2023-02-18T11:41:57;0.00;;;0.00;;
41480;SDS011;27217;51.220;5.308;2023-02-18T11:44:36;5.47;;;1.55;;
41480;SDS011;27217;51.220;5.308;2023-02-18T11:47:16;0.00;;;0.00;;
41480;SDS011;27217;51.220;5.308;2023-02-18T11:49:59;1.65;;;1.55;;
41480;SDS011;27217;51.220;5.308;2023-02-18T11:52:35;0.00;;;0.00;;
41480;SDS011;27217;51.220;5.308;2023-02-18T11:55:06;0.00;;;0.00;;
41480;SDS011;27217;51.220;5.308;2023-02-18T11:57:40;0.00;;;0.00;;
41480;SDS011;27217;51.220;5.308;2023-02-18T12:00:21;0.15;;;0.15;;
41480;SDS011;27217;51.220;5.308;2023-02-18T12:03:08;1.10;;;0.75;;
41480;SDS011;27217;51.220;5.308;2023-02-18T12:05:57;0.20;;;0.20;;
41480;SDS011;27217;51.220;5.308;2023-02-18T12:08:27;1.27;;;1.17;;
41480;SDS011;27217;51.220;5.308;2023-02-18T12:11:00;0.60;;;0.60;;
41480;SDS011;27217;51.220;5.308;2023-02-18T12:13:35;1.00;;;0.63;;
41480;SDS011;27217;51.220;5.308;2023-02-18T12:16:18;0.00;;;0.00;;
41480;SDS011;27217;51.220;5.308;2023-02-18T12:24:49;0.80;;;0.68;;
41480;SDS011;27217;51.220;5.308;2023-02-18T12:27:47;1.45;;;1.08;;
41480;SDS011;27217;51.220;5.308;2023-02-18T12:49:12;0.47;;;0.25;;
41480;SDS011;27217;51.220;5.308;2023-02-18T12:57:34;0.52;;;0.52;;
41480;SDS011;27217;51.220;5.308;2023-02-18T13:06:07;0.22;;;0.22;;
41480;SDS011;27217;51.220;5.308;2023-02-18T13:11:50;0.00;;;0.00;;
41480;SDS011;27217;51.220;5.308;2023-02-18T13:14:29;10.65;;;4.35;;
41480;SDS011;27217;51.220;5.308;2023-02-18T13:17:01;24.90;;;9.00;;
41480;SDS011;27217;51.220;5.308;2023-02-18T13:21:59;26.45;;;8.00;;
41480;SDS011;27217;51.220;5.308;2023-02-18T13:26:56;21.05;;;7.07;;
41480;SDS011;27217;51.220;5.308;2023-02-18T13:29:54;19.25;;;6.85;;
41480;SDS011;27217;51.220;5.308;2023-02-18T13:32:39;22.00;;;7.47;;
41480;SDS011;27217;51.220;5.308;2023-02-18T13:41:01;23.40;;;7.13;;
41480;SDS011;27217;51.220;5.308;2023-02-18T13:43:29;24.52;;;6.95;;
41480;SDS011;27217;51.220;5.308;2023-02-18T13:48:38;20.85;;;7.72;;
41480;SDS011;27217;51.220;5.308;2023-02-18T13:51:28;23.58;;;7.55;;
41480;SDS011;27217;51.220;5.308;2023-02-18T13:54:04;23.23;;;6.68;;
41480;SDS011;27217;51.220;5.308;2023-02-18T13:56:41;23.65;;;8.00;;
41480;SDS011;27217;51.220;5.308;2023-02-18T13:59:11;30.38;;;7.65;;
41480;SDS011;27217;51.220;5.308;2023-02-18T14:01:47;28.63;;;7.00;;
41480;SDS011;27217;51.220;5.308;2023-02-18T14:17:46;23.90;;;6.68;;
41480;SDS011;27217;51.220;5.308;2023-02-18T14:28:48;20.23;;;6.00;;
41480;SDS011;27217;51.220;5.308;2023-02-18T14:49:58;19.27;;;5.53;;
41480;SDS011;27217;51.220;5.308;2023-02-18T14:54:57;16.55;;;4.93;;
41480;SDS011;27217;51.220;5.308;2023-02-18T14:57:31;18.08;;;5.07;;
41480;SDS011;27217;51.220;5.308;2023-02-18T15:00:20;19.13;;;5.28;;
41480;SDS011;27217;51.220;5.308;2023-02-18T15:02:53;15.57;;;4.38;;
41480;SDS011;27217;51.220;5.308;2023-02-18T15:05:23;20.50;;;4.63;;
41480;SDS011;27217;51.220;5.308;2023-02-18T15:08:13;21.90;;;4.63;;
41480;SDS011;27217;51.220;5.308;2023-02-18T15:10:52;12.57;;;5.07;;
41480;SDS011;27217;51.220;5.308;2023-02-18T15:13:24;8.52;;;3.75;;
41480;SDS011;27217;51.220;5.308;2023-02-18T15:15:57;19.92;;;5.25;;
41480;SDS011;27217;51.220;5.308;2023-02-18T15:18:33;13.50;;;4.05;;
41480;SDS011;27217;51.220;5.308;2023-02-18T15:21:04;11.13;;;3.85;;
41480;SDS011;27217;51.220;5.308;2023-02-18T15:23:34;18.58;;;4.85;;
41480;SDS011;27217;51.220;5.308;2023-02-18T15:26:01;17.20;;;4.15;;
41480;SDS011;27217;51.220;5.308;2023-02-18T15:28:31;8.07;;;3.65;;
41480;SDS011;27217;51.220;5.308;2023-02-18T15:30:58;15.10;;;3.97;;
41480;SDS011;27217;51.220;5.308;2023-02-18T15:33:26;13.20;;;4.05;;
41480;SDS011;27217;51.220;5.308;2023-02-18T15:36:02;13.57;;;3.90;;
41480;SDS011;27217;51.220;5.308;2023-02-18T15:38:30;17.98;;;4.47;;
41480;SDS011;27217;51.220;5.308;2023-02-18T15:40:57;17.65;;;4.47;;
41480;SDS011;27217;51.220;5.308;2023-02-18T15:43:24;10.80;;;3.70;;
41480;SDS011;27217;51.220;5.308;2023-02-18T15:45:54;10.05;;;4.30;;
41480;SDS011;27217;51.220;5.308;2023-02-18T15:48:29;20.00;;;4.60;;
41480;SDS011;27217;51.220;5.308;2023-02-18T15:51:02;8.85;;;4.13;;
41480;SDS011;27217;51.220;5.308;2023-02-18T15:53:31;15.02;;;4.70;;
41480;SDS011;27217;51.220;5.308;2023-02-18T15:56:04;11.60;;;5.18;;
41480;SDS011;27217;51.220;5.308;2023-02-18T15:58:32;14.75;;;5.25;;
41480;SDS011;27217;51.220;5.308;2023-02-18T16:01:00;11.85;;;4.13;;
41480;SDS011;27217;51.220;5.308;2023-02-18T16:03:31;15.48;;;6.15;;
41480;SDS011;27217;51.220;5.308;2023-02-18T16:06:20;15.77;;;5.28;;
41480;SDS011;27217;51.220;5.308;2023-02-18T16:12:01;16.20;;;6.85;;
41480;SDS011;27217;51.220;5.308;2023-02-18T16:14:33;16.63;;;7.55;;
41480;SDS011;27217;51.220;5.308;2023-02-18T16:19:46;23.17;;;8.10;;
41480;SDS011;27217;51.220;5.308;2023-02-18T16:27:34;22.30;;;8.27;;
41480;SDS011;27217;51.220;5.308;2023-02-18T16:30:05;20.85;;;8.02;;
41480;SDS011;27217;51.220;5.308;2023-02-18T16:32:40;23.55;;;8.40;;
41480;SDS011;27217;51.220;5.308;2023-02-18T16:35:06;29.33;;;8.57;;
41480;SDS011;27217;51.220;5.308;2023-02-18T16:37:32;28.17;;;7.78;;
41480;SDS011;27217;51.220;5.308;2023-02-18T16:42:54;25.50;;;8.02;;
41480;SDS011;27217;51.220;5.308;2023-02-18T16:45:23;22.75;;;8.57;;
41480;SDS011;27217;51.220;5.308;2023-02-18T16:48:00;22.88;;;7.95;;
41480;SDS011;27217;51.220;5.308;2023-02-18T16:50:26;21.17;;;8.18;;
41480;SDS011;27217;51.220;5.308;2023-02-18T16:52:54;23.88;;;8.00;;
41480;SDS011;27217;51.220;5.308;2023-02-18T16:55:22;26.67;;;8.35;;
41480;SDS011;27217;51.220;5.308;2023-02-18T16:57:50;16.55;;;6.85;;
41480;SDS011;27217;51.220;5.308;2023-02-18T17:00:16;24.98;;;8.35;;
41480;SDS011;27217;51.220;5.308;2023-02-18T17:02:44;26.85;;;8.27;;
41480;SDS011;27217;51.220;5.308;2023-02-18T17:05:20;23.77;;;8.02;;
41480;SDS011;27217;51.220;5.308;2023-02-18T17:07:48;13.00;;;7.18;;
41480;SDS011;27217;51.220;5.308;2023-02-18T17:10:13;21.08;;;7.70;;
41480;SDS011;27217;51.220;5.308;2023-02-18T17:12:40;22.88;;;8.23;;
41480;SDS011;27217;51.220;5.308;2023-02-18T17:15:13;23.23;;;7.82;;
41480;SDS011;27217;51.220;5.308;2023-02-18T17:17:48;18.30;;;7.20;;
41480;SDS011;27217;51.220;5.308;2023-02-18T17:20:13;17.58;;;6.78;;
41480;SDS011;27217;51.220;5.308;2023-02-18T17:22:40;22.92;;;6.45;;
41480;SDS011;27217;51.220;5.308;2023-02-18T17:25:09;20.75;;;6.95;;
41480;SDS011;27217;51.220;5.308;2023-02-18T17:27:39;23.90;;;7.93;;
41480;SDS011;27217;51.220;5.308;2023-02-18T17:30:05;16.73;;;6.38;;
41480;SDS011;27217;51.220;5.308;2023-02-18T17:32:32;16.48;;;6.53;;
41480;SDS011;27217;51.220;5.308;2023-02-18T17:34:58;22.25;;;6.97;;
41480;SDS011;27217;51.220;5.308;2023-02-18T17:37:24;18.58;;;5.85;;
41480;SDS011;27217;51.220;5.308;2023-02-18T17:39:52;21.92;;;6.22;;
41480;SDS011;27217;51.220;5.308;2023-02-18T17:42:24;19.55;;;6.20;;
41480;SDS011;27217;51.220;5.308;2023-02-18T17:44:51;15.05;;;5.70;;
41480;SDS011;27217;51.220;5.308;2023-02-18T17:47:18;22.42;;;6.43;;
41480;SDS011;27217;51.220;5.308;2023-02-18T17:49:44;23.17;;;5.80;;
41480;SDS011;27217;51.220;5.308;2023-02-18T17:52:15;22.38;;;6.18;;